sensor_id;sensor_type;location;lat;lon;timestamp;temperature;humidity
16829;DHT22;8531;48.078;11.968;2024-01-07T00:00:01;1.80;99.90
16829;DHT22;8531;48.078;11.968;2024-01-07T00:02:27;1.80;99.90
16829;DHT22;8531;48.078;11.968;2024-01-07T00:04:53;1.80;99.90
16829;DHT22;8531;48.078;11.968;2024-01-07T00:07:18;1.80;99.90
16829;DHT22;8531;48.078;11.968;2024-01-07T00:09:46;1.80;99.90
16829;DHT22;8531;48.078;11.968;2024-01-07T00:12:11;1.80;99.90
16829;DHT22;8531;48.078;11.968;2024-01-07T00:14:37;1.80;99.90
16829;DHT22;8531;48.078;11.968;2024-01-07T00:17:03;1.80;99.90
16829;DHT22;8531;48.078;11.968;2024-01-07T00:19:28;1.80;99.90
16829;DHT22;8531;48.078;11.968;2024-01-07T00:21:57;1.80;99.90
16829;DHT22;8531;48.078;11.968;2024-01-07T00:24:22;1.80;99.90
16829;DHT22;8531;48.078;11.968;2024-01-07T00:26:51;1.80;99.90
16829;DHT22;8531;48.078;11.968;2024-01-07T00:29:16;1.80;99.90
16829;DHT22;8531;48.078;11.968;2024-01-07T00:31:42;1.80;99.90
16829;DHT22;8531;48.078;11.968;2024-01-07T00:34:08;1.80;99.90
16829;DHT22;8531;48.078;11.968;2024-01-07T00:36:33;1.80;99.90
16829;DHT22;8531;48.078;11.968;2024-01-07T00:38:59;1.80;99.90
16829;DHT22;8531;48.078;11.968;2024-01-07T00:41:25;1.80;99.90
16829;DHT22;8531;48.078;11.968;2024-01-07T00:43:50;1.80;99.90
16829;DHT22;8531;48.078;11.968;2024-01-07T00:46:16;1.70;99.90
16829;DHT22;8531;48.078;11.968;2024-01-07T00:48:42;1.70;99.90
16829;DHT22;8531;48.078;11.968;2024-01-07T00:51:07;1.80;99.90
16829;DHT22;8531;48.078;11.968;2024-01-07T00:53:33;1.70;99.90
16829;DHT22;8531;48.078;11.968;2024-01-07T00:55:59;1.70;99.90
16829;DHT22;8531;48.078;11.968;2024-01-07T00:58:24;1.70;99.90
16829;DHT22;8531;48.078;11.968;2024-01-07T01:00:50;1.70;99.90
16829;DHT22;8531;48.078;11.968;2024-01-07T01:03:16;1.70;99.90
16829;DHT22;8531;48.078;11.968;2024-01-07T01:05:42;1.80;99.90
16829;DHT22;8531;48.078;11.968;2024-01-07T01:08:07;1.70;99.90
16829;DHT22;8531;48.078;11.968;2024-01-07T01:10:33;1.80;99.90
16829;DHT22;8531;48.078;11.968;2024-01-07T01:12:59;1.70;99.90
16829;DHT22;8531;48.078;11.968;2024-01-07T01:15:24;1.70;99.90
16829;DHT22;8531;48.078;11.968;2024-01-07T01:17:50;1.70;99.90
16829;DHT22;8531;48.078;11.968;2024-01-07T01:20:16;1.70;99.90
16829;DHT22;8531;48.078;11.968;2024-01-07T01:22:41;1.70;99.90
16829;DHT22;8531;48.078;11.968;2024-01-07T01:25:07;1.70;99.90
16829;DHT22;8531;48.078;11.968;2024-01-07T01:27:33;1.70;99.90
16829;DHT22;8531;48.078;11.968;2024-01-07T01:29:58;1.70;99.90
16829;DHT22;8531;48.078;11.968;2024-01-07T01:32:24;1.70;99.90
16829;DHT22;8531;48.078;11.968;2024-01-07T01:34:50;1.70;99.90
16829;DHT22;8531;48.078;11.968;2024-01-07T01:37:15;1.70;99.90
16829;DHT22;8531;48.078;11.968;2024-01-07T01:39:41;1.70;99.90
16829;DHT22;8531;48.078;11.968;2024-01-07T01:42:07;1.70;99.90
16829;DHT22;8531;48.078;11.968;2024-01-07T01:44:33;1.70;99.90
16829;DHT22;8531;48.078;11.968;2024-01-07T01:47:00;1.70;99.90
16829;DHT22;8531;48.078;11.968;2024-01-07T01:49:27;1.70;99.90
16829;DHT22;8531;48.078;11.968;2024-01-07T01:51:53;1.70;99.90
16829;DHT22;8531;48.078;11.968;2024-01-07T01:54:20;1.70;99.90
16829;DHT22;8531;48.078;11.968;2024-01-07T01:56:47;1.80;99.90
16829;DHT22;8531;48.078;11.968;2024-01-07T01:59:14;1.70;99.90
16829;DHT22;8531;48.078;11.968;2024-01-07T02:01:40;1.80;99.90
16829;DHT22;8531;48.078;11.968;2024-01-07T02:04:07;1.70;99.90
16829;DHT22;8531;48.078;11.968;2024-01-07T02:06:33;1.80;99.90
16829;DHT22;8531;48.078;11.968;2024-01-07T02:08:59;1.70;99.90
16829;DHT22;8531;48.078;11.968;2024-01-07T02:11:25;1.70;99.90
16829;DHT22;8531;48.078;11.968;2024-01-07T02:13:51;1.70;99.90
16829;DHT22;8531;48.078;11.968;2024-01-07T02:16:17;1.80;99.90
16829;DHT22;8531;48.078;11.968;2024-01-07T02:18:44;1.80;99.90
16829;DHT22;8531;48.078;11.968;2024-01-07T02:21:11;1.80;99.90
16829;DHT22;8531;48.078;11.968;2024-01-07T02:23:38;1.70;99.90
16829;DHT22;8531;48.078;11.968;2024-01-07T02:26:03;1.80;99.90
16829;DHT22;8531;48.078;11.968;2024-01-07T02:28:30;1.70;99.90
16829;DHT22;8531;48.078;11.968;2024-01-07T02:30:56;1.70;99.90
16829;DHT22;8531;48.078;11.968;2024-01-07T02:33:21;1.70;99.90
16829;DHT22;8531;48.078;11.968;2024-01-07T02:35:47;1.80;99.90
16829;DHT22;8531;48.078;11.968;2024-01-07T02:38:13;1.80;99.90
16829;DHT22;8531;48.078;11.968;2024-01-07T02:40:39;1.70;99.90
16829;DHT22;8531;48.078;11.968;2024-01-07T02:43:04;1.70;99.90
16829;DHT22;8531;48.078;11.968;2024-01-07T02:45:30;1.70;99.90
16829;DHT22;8531;48.078;11.968;2024-01-07T02:47:55;1.80;99.90
16829;DHT22;8531;48.078;11.968;2024-01-07T02:50:21;1.70;99.90
16829;DHT22;8531;48.078;11.968;2024-01-07T02:52:47;1.70;99.90
16829;DHT22;8531;48.078;11.968;2024-01-07T02:55:13;1.70;99.90
16829;DHT22;8531;48.078;11.968;2024-01-07T02:57:39;1.70;99.90
16829;DHT22;8531;48.078;11.968;2024-01-07T03:00:05;1.70;99.90
16829;DHT22;8531;48.078;11.968;2024-01-07T03:02:31;1.80;99.90
16829;DHT22;8531;48.078;11.968;2024-01-07T03:04:57;1.70;99.90
16829;DHT22;8531;48.078;11.968;2024-01-07T03:07:23;1.70;99.90
16829;DHT22;8531;48.078;11.968;2024-01-07T03:09:49;1.70;99.90
16829;DHT22;8531;48.078;11.968;2024-01-07T03:12:16;1.70;99.90
16829;DHT22;8531;48.078;11.968;2024-01-07T03:14:42;1.70;99.90
16829;DHT22;8531;48.078;11.968;2024-01-07T03:17:08;1.80;99.90
16829;DHT22;8531;48.078;11.968;2024-01-07T03:19:34;1.70;99.90
16829;DHT22;8531;48.078;11.968;2024-01-07T03:22:00;1.70;99.90
16829;DHT22;8531;48.078;11.968;2024-01-07T03:24:25;1.70;99.90
16829;DHT22;8531;48.078;11.968;2024-01-07T03:26:51;1.70;99.90
16829;DHT22;8531;48.078;11.968;2024-01-07T03:29:16;1.70;99.90
16829;DHT22;8531;48.078;11.968;2024-01-07T03:31:42;1.80;99.90
16829;DHT22;8531;48.078;11.968;2024-01-07T03:34:08;1.80;99.90
16829;DHT22;8531;48.078;11.968;2024-01-07T03:36:33;1.80;99.90
16829;DHT22;8531;48.078;11.968;2024-01-07T03:38:59;1.70;99.90
16829;DHT22;8531;48.078;11.968;2024-01-07T03:41:25;1.80;99.90
16829;DHT22;8531;48.078;11.968;2024-01-07T03:43:51;1.80;99.90
16829;DHT22;8531;48.078;11.968;2024-01-07T03:46:18;1.80;99.90
16829;DHT22;8531;48.078;11.968;2024-01-07T03:48:44;1.80;99.90
16829;DHT22;8531;48.078;11.968;2024-01-07T03:51:10;1.70;99.90
16829;DHT22;8531;48.078;11.968;2024-01-07T03:53:36;1.70;99.90
16829;DHT22;8531;48.078;11.968;2024-01-07T03:56:01;1.70;99.90
16829;DHT22;8531;48.078;11.968;2024-01-07T03:58:27;1.70;99.90
16829;DHT22;8531;48.078;11.968;2024-01-07T04:00:53;1.80;99.90
16829;DHT22;8531;48.078;11.968;2024-01-07T04:03:18;1.70;99.90
16829;DHT22;8531;48.078;11.968;2024-01-07T04:05:44;1.70;99.90
16829;DHT22;8531;48.078;11.968;2024-01-07T04:08:13;1.70;99.90
16829;DHT22;8531;48.078;11.968;2024-01-07T04:10:41;1.80;99.90
16829;DHT22;8531;48.078;11.968;2024-01-07T04:13:07;1.70;99.90
16829;DHT22;8531;48.078;11.968;2024-01-07T04:15:33;1.70;99.90
16829;DHT22;8531;48.078;11.968;2024-01-07T04:18:05;1.70;99.90
16829;DHT22;8531;48.078;11.968;2024-01-07T04:20:31;1.70;99.90
16829;DHT22;8531;48.078;11.968;2024-01-07T04:22:57;1.70;99.90
16829;DHT22;8531;48.078;11.968;2024-01-07T04:25:23;1.70;99.90
16829;DHT22;8531;48.078;11.968;2024-01-07T04:27:49;1.80;99.90
16829;DHT22;8531;48.078;11.968;2024-01-07T04:30:15;1.70;99.90
16829;DHT22;8531;48.078;11.968;2024-01-07T04:32:40;1.70;99.90
16829;DHT22;8531;48.078;11.968;2024-01-07T04:35:06;1.80;99.90
16829;DHT22;8531;48.078;11.968;2024-01-07T04:37:33;1.70;99.90
16829;DHT22;8531;48.078;11.968;2024-01-07T04:39:58;1.70;99.90
16829;DHT22;8531;48.078;11.968;2024-01-07T04:42:24;1.70;99.90
16829;DHT22;8531;48.078;11.968;2024-01-07T04:44:50;1.70;99.90
16829;DHT22;8531;48.078;11.968;2024-01-07T04:47:30;1.70;99.90
16829;DHT22;8531;48.078;11.968;2024-01-07T04:49:56;1.70;99.90
16829;DHT22;8531;48.078;11.968;2024-01-07T04:52:23;1.70;99.90
16829;DHT22;8531;48.078;11.968;2024-01-07T04:54:53;1.80;99.90
16829;DHT22;8531;48.078;11.968;2024-01-07T04:57:19;1.80;99.90
16829;DHT22;8531;48.078;11.968;2024-01-07T04:59:48;1.70;99.90
16829;DHT22;8531;48.078;11.968;2024-01-07T05:02:14;1.70;99.90
16829;DHT22;8531;48.078;11.968;2024-01-07T05:04:40;1.70;99.90
16829;DHT22;8531;48.078;11.968;2024-01-07T05:07:06;1.70;99.90
16829;DHT22;8531;48.078;11.968;2024-01-07T05:09:32;1.70;99.90
16829;DHT22;8531;48.078;11.968;2024-01-07T05:11:59;1.70;99.90
16829;DHT22;8531;48.078;11.968;2024-01-07T05:14:24;1.70;99.90
16829;DHT22;8531;48.078;11.968;2024-01-07T05:16:50;1.70;99.90
16829;DHT22;8531;48.078;11.968;2024-01-07T05:19:16;1.70;99.90
16829;DHT22;8531;48.078;11.968;2024-01-07T05:21:41;1.60;99.90
16829;DHT22;8531;48.078;11.968;2024-01-07T05:24:07;1.60;99.90
16829;DHT22;8531;48.078;11.968;2024-01-07T05:26:43;1.60;99.90
16829;DHT22;8531;48.078;11.968;2024-01-07T05:29:09;1.70;99.90
16829;DHT22;8531;48.078;11.968;2024-01-07T05:31:35;1.60;99.90
16829;DHT22;8531;48.078;11.968;2024-01-07T05:34:01;1.60;99.90
16829;DHT22;8531;48.078;11.968;2024-01-07T05:36:27;1.60;99.90
16829;DHT22;8531;48.078;11.968;2024-01-07T05:38:52;1.60;99.90
16829;DHT22;8531;48.078;11.968;2024-01-07T05:41:18;1.60;99.90
16829;DHT22;8531;48.078;11.968;2024-01-07T05:43:44;1.60;99.90
16829;DHT22;8531;48.078;11.968;2024-01-07T05:46:09;1.60;99.90
16829;DHT22;8531;48.078;11.968;2024-01-07T05:48:47;1.60;99.90
16829;DHT22;8531;48.078;11.968;2024-01-07T05:51:14;1.60;99.90
16829;DHT22;8531;48.078;11.968;2024-01-07T05:53:40;1.60;99.90
16829;DHT22;8531;48.078;11.968;2024-01-07T05:56:06;1.70;99.90
16829;DHT22;8531;48.078;11.968;2024-01-07T05:58:32;1.70;99.90
16829;DHT22;8531;48.078;11.968;2024-01-07T06:00:58;1.70;99.90
16829;DHT22;8531;48.078;11.968;2024-01-07T06:03:24;1.50;99.90
16829;DHT22;8531;48.078;11.968;2024-01-07T06:05:49;1.50;99.90
16829;DHT22;8531;48.078;11.968;2024-01-07T06:08:15;1.40;99.90
16829;DHT22;8531;48.078;11.968;2024-01-07T06:10:41;1.40;99.90
16829;DHT22;8531;48.078;11.968;2024-01-07T06:13:07;1.50;99.90
16829;DHT22;8531;48.078;11.968;2024-01-07T06:15:32;1.50;99.90
16829;DHT22;8531;48.078;11.968;2024-01-07T06:17:58;1.50;99.90
16829;DHT22;8531;48.078;11.968;2024-01-07T06:20:24;1.40;99.90
16829;DHT22;8531;48.078;11.968;2024-01-07T06:22:50;1.50;99.90
16829;DHT22;8531;48.078;11.968;2024-01-07T06:25:16;1.50;99.90
16829;DHT22;8531;48.078;11.968;2024-01-07T06:27:41;1.50;99.90
16829;DHT22;8531;48.078;11.968;2024-01-07T06:30:08;1.50;99.90
16829;DHT22;8531;48.078;11.968;2024-01-07T06:32:34;1.40;99.90
16829;DHT22;8531;48.078;11.968;2024-01-07T06:35:00;1.40;99.90
16829;DHT22;8531;48.078;11.968;2024-01-07T06:37:26;1.50;99.90
16829;DHT22;8531;48.078;11.968;2024-01-07T06:39:54;1.50;99.90
16829;DHT22;8531;48.078;11.968;2024-01-07T06:42:20;1.40;99.90
16829;DHT22;8531;48.078;11.968;2024-01-07T06:44:46;1.50;99.90
16829;DHT22;8531;48.078;11.968;2024-01-07T06:47:11;1.50;99.90
16829;DHT22;8531;48.078;11.968;2024-01-07T06:49:37;1.50;99.90
16829;DHT22;8531;48.078;11.968;2024-01-07T06:52:04;1.50;99.90
16829;DHT22;8531;48.078;11.968;2024-01-07T06:54:30;1.50;99.90
16829;DHT22;8531;48.078;11.968;2024-01-07T06:56:56;1.50;99.90
16829;DHT22;8531;48.078;11.968;2024-01-07T06:59:21;1.40;99.90
16829;DHT22;8531;48.078;11.968;2024-01-07T07:01:47;1.50;99.90
16829;DHT22;8531;48.078;11.968;2024-01-07T07:04:13;1.50;99.90
16829;DHT22;8531;48.078;11.968;2024-01-07T07:06:38;1.60;99.90
16829;DHT22;8531;48.078;11.968;2024-01-07T07:09:04;1.40;99.90
16829;DHT22;8531;48.078;11.968;2024-01-07T07:11:30;1.40;99.90
16829;DHT22;8531;48.078;11.968;2024-01-07T07:13:56;1.40;99.90
16829;DHT22;8531;48.078;11.968;2024-01-07T07:16:22;1.40;99.90
16829;DHT22;8531;48.078;11.968;2024-01-07T07:18:48;1.50;99.90
16829;DHT22;8531;48.078;11.968;2024-01-07T07:21:14;1.50;99.90
16829;DHT22;8531;48.078;11.968;2024-01-07T07:23:39;1.50;99.90
16829;DHT22;8531;48.078;11.968;2024-01-07T07:26:05;1.50;99.90
16829;DHT22;8531;48.078;11.968;2024-01-07T07:28:32;1.40;99.90
16829;DHT22;8531;48.078;11.968;2024-01-07T07:30:57;1.40;99.90
16829;DHT22;8531;48.078;11.968;2024-01-07T07:33:23;1.50;99.90
16829;DHT22;8531;48.078;11.968;2024-01-07T07:35:49;1.50;99.90
16829;DHT22;8531;48.078;11.968;2024-01-07T07:38:15;1.50;99.90
16829;DHT22;8531;48.078;11.968;2024-01-07T07:40:41;1.40;99.90
16829;DHT22;8531;48.078;11.968;2024-01-07T07:43:08;1.40;99.90
16829;DHT22;8531;48.078;11.968;2024-01-07T07:45:33;1.40;99.90
16829;DHT22;8531;48.078;11.968;2024-01-07T07:47:59;1.30;99.90
16829;DHT22;8531;48.078;11.968;2024-01-07T07:50:25;1.30;99.90
16829;DHT22;8531;48.078;11.968;2024-01-07T07:52:51;1.30;99.90
16829;DHT22;8531;48.078;11.968;2024-01-07T07:55:16;1.30;99.90
16829;DHT22;8531;48.078;11.968;2024-01-07T07:57:42;1.40;99.90
16829;DHT22;8531;48.078;11.968;2024-01-07T08:00:08;1.50;99.90
16829;DHT22;8531;48.078;11.968;2024-01-07T08:02:38;1.50;99.90
16829;DHT22;8531;48.078;11.968;2024-01-07T08:05:05;1.50;99.90
16829;DHT22;8531;48.078;11.968;2024-01-07T08:07:31;1.60;99.90
16829;DHT22;8531;48.078;11.968;2024-01-07T08:09:56;1.70;99.90
16829;DHT22;8531;48.078;11.968;2024-01-07T08:12:23;1.60;99.90
16829;DHT22;8531;48.078;11.968;2024-01-07T08:14:49;1.50;99.90
16829;DHT22;8531;48.078;11.968;2024-01-07T08:17:15;1.40;99.90
16829;DHT22;8531;48.078;11.968;2024-01-07T08:19:41;1.40;99.90
16829;DHT22;8531;48.078;11.968;2024-01-07T08:22:06;1.30;99.90
16829;DHT22;8531;48.078;11.968;2024-01-07T08:24:32;1.40;99.90
16829;DHT22;8531;48.078;11.968;2024-01-07T08:26:58;1.40;99.90
16829;DHT22;8531;48.078;11.968;2024-01-07T08:29:24;1.40;99.90
16829;DHT22;8531;48.078;11.968;2024-01-07T08:31:49;1.30;99.90
16829;DHT22;8531;48.078;11.968;2024-01-07T08:34:16;1.30;99.90
16829;DHT22;8531;48.078;11.968;2024-01-07T08:36:41;1.40;99.90
16829;DHT22;8531;48.078;11.968;2024-01-07T08:39:07;1.40;99.90
16829;DHT22;8531;48.078;11.968;2024-01-07T08:41:33;1.40;99.90
16829;DHT22;8531;48.078;11.968;2024-01-07T08:43:59;1.40;99.90
16829;DHT22;8531;48.078;11.968;2024-01-07T08:46:24;1.40;99.90
16829;DHT22;8531;48.078;11.968;2024-01-07T08:48:50;1.50;99.90
16829;DHT22;8531;48.078;11.968;2024-01-07T08:51:16;1.50;99.90
16829;DHT22;8531;48.078;11.968;2024-01-07T08:53:41;1.50;99.90
16829;DHT22;8531;48.078;11.968;2024-01-07T08:56:07;1.50;99.90
16829;DHT22;8531;48.078;11.968;2024-01-07T08:58:34;1.50;99.90
16829;DHT22;8531;48.078;11.968;2024-01-07T09:00:59;1.30;99.90
16829;DHT22;8531;48.078;11.968;2024-01-07T09:03:25;1.30;99.90
16829;DHT22;8531;48.078;11.968;2024-01-07T09:05:51;1.40;99.90
16829;DHT22;8531;48.078;11.968;2024-01-07T09:08:16;1.50;99.90
16829;DHT22;8531;48.078;11.968;2024-01-07T09:10:42;1.50;99.90
16829;DHT22;8531;48.078;11.968;2024-01-07T09:13:08;1.50;99.90
16829;DHT22;8531;48.078;11.968;2024-01-07T09:15:34;1.50;99.90
16829;DHT22;8531;48.078;11.968;2024-01-07T09:17:59;1.60;99.90
16829;DHT22;8531;48.078;11.968;2024-01-07T09:20:25;1.60;99.90
16829;DHT22;8531;48.078;11.968;2024-01-07T09:22:51;1.50;99.90
16829;DHT22;8531;48.078;11.968;2024-01-07T09:25:16;1.50;99.90
16829;DHT22;8531;48.078;11.968;2024-01-07T09:27:42;1.60;99.90
16829;DHT22;8531;48.078;11.968;2024-01-07T09:30:11;1.60;99.90
16829;DHT22;8531;48.078;11.968;2024-01-07T09:32:40;1.70;99.90
16829;DHT22;8531;48.078;11.968;2024-01-07T09:35:06;1.60;99.90
16829;DHT22;8531;48.078;11.968;2024-01-07T09:37:32;1.50;99.90
16829;DHT22;8531;48.078;11.968;2024-01-07T09:39:58;1.50;99.90
16829;DHT22;8531;48.078;11.968;2024-01-07T09:42:23;1.50;99.90
16829;DHT22;8531;48.078;11.968;2024-01-07T09:44:51;1.60;99.90
16829;DHT22;8531;48.078;11.968;2024-01-07T09:47:17;1.70;99.90
16829;DHT22;8531;48.078;11.968;2024-01-07T09:49:43;1.70;99.90
16829;DHT22;8531;48.078;11.968;2024-01-07T09:52:10;1.80;99.90
16829;DHT22;8531;48.078;11.968;2024-01-07T09:54:37;1.60;99.90
16829;DHT22;8531;48.078;11.968;2024-01-07T09:57:09;1.60;99.90
16829;DHT22;8531;48.078;11.968;2024-01-07T09:59:36;1.50;99.90
16829;DHT22;8531;48.078;11.968;2024-01-07T10:02:04;1.60;99.90
16829;DHT22;8531;48.078;11.968;2024-01-07T10:04:30;1.60;99.90
16829;DHT22;8531;48.078;11.968;2024-01-07T10:06:56;1.70;99.90
16829;DHT22;8531;48.078;11.968;2024-01-07T10:09:23;1.70;99.90
16829;DHT22;8531;48.078;11.968;2024-01-07T10:11:49;1.80;99.90
16829;DHT22;8531;48.078;11.968;2024-01-07T10:14:15;1.90;99.90
16829;DHT22;8531;48.078;11.968;2024-01-07T10:16:41;1.90;99.90
16829;DHT22;8531;48.078;11.968;2024-01-07T10:19:07;1.80;99.90
16829;DHT22;8531;48.078;11.968;2024-01-07T10:21:33;1.70;99.90
16829;DHT22;8531;48.078;11.968;2024-01-07T10:24:10;1.70;99.90
16829;DHT22;8531;48.078;11.968;2024-01-07T10:26:37;1.70;99.90
16829;DHT22;8531;48.078;11.968;2024-01-07T10:29:04;1.50;99.90
16829;DHT22;8531;48.078;11.968;2024-01-07T10:31:29;1.40;99.90
16829;DHT22;8531;48.078;11.968;2024-01-07T10:33:56;1.40;99.90
16829;DHT22;8531;48.078;11.968;2024-01-07T10:36:22;1.40;99.90
16829;DHT22;8531;48.078;11.968;2024-01-07T10:38:50;1.40;99.90
16829;DHT22;8531;48.078;11.968;2024-01-07T10:41:18;1.30;99.90
16829;DHT22;8531;48.078;11.968;2024-01-07T10:43:46;1.40;99.90
16829;DHT22;8531;48.078;11.968;2024-01-07T10:46:14;1.40;99.90
16829;DHT22;8531;48.078;11.968;2024-01-07T10:48:50;1.40;99.90
16829;DHT22;8531;48.078;11.968;2024-01-07T10:51:16;1.50;99.90
16829;DHT22;8531;48.078;11.968;2024-01-07T10:53:47;1.60;99.90
16829;DHT22;8531;48.078;11.968;2024-01-07T10:56:17;1.70;99.90
16829;DHT22;8531;48.078;11.968;2024-01-07T10:58:46;1.70;99.90
16829;DHT22;8531;48.078;11.968;2024-01-07T11:01:13;1.60;99.90
16829;DHT22;8531;48.078;11.968;2024-01-07T11:06:33;1.40;99.90
16829;DHT22;8531;48.078;11.968;2024-01-07T11:12:01;1.50;99.90
16829;DHT22;8531;48.078;11.968;2024-01-07T11:14:43;1.30;99.90
16829;DHT22;8531;48.078;11.968;2024-01-07T11:20:18;1.30;99.90
16829;DHT22;8531;48.078;11.968;2024-01-07T11:22:45;1.40;99.90
16829;DHT22;8531;48.078;11.968;2024-01-07T11:25:31;1.50;99.90
16829;DHT22;8531;48.078;11.968;2024-01-07T11:27:58;1.50;99.90
16829;DHT22;8531;48.078;11.968;2024-01-07T11:30:26;1.50;99.90
16829;DHT22;8531;48.078;11.968;2024-01-07T11:33:01;1.40;99.90
16829;DHT22;8531;48.078;11.968;2024-01-07T11:36:02;1.40;99.90
16829;DHT22;8531;48.078;11.968;2024-01-07T11:38:29;1.30;99.90
16829;DHT22;8531;48.078;11.968;2024-01-07T11:40:56;1.30;99.90
16829;DHT22;8531;48.078;11.968;2024-01-07T11:43:22;1.30;99.90
16829;DHT22;8531;48.078;11.968;2024-01-07T11:45:49;1.40;99.90
16829;DHT22;8531;48.078;11.968;2024-01-07T11:48:16;1.50;99.90
16829;DHT22;8531;48.078;11.968;2024-01-07T11:50:42;1.30;99.90
16829;DHT22;8531;48.078;11.968;2024-01-07T11:53:07;1.30;99.90
16829;DHT22;8531;48.078;11.968;2024-01-07T11:55:33;1.40;99.90
16829;DHT22;8531;48.078;11.968;2024-01-07T11:58:04;1.40;99.90
16829;DHT22;8531;48.078;11.968;2024-01-07T12:00:33;1.30;99.90
16829;DHT22;8531;48.078;11.968;2024-01-07T12:03:03;1.30;99.90
16829;DHT22;8531;48.078;11.968;2024-01-07T12:05:29;1.40;99.90
16829;DHT22;8531;48.078;11.968;2024-01-07T12:07:55;1.50;99.90
16829;DHT22;8531;48.078;11.968;2024-01-07T12:10:21;1.60;99.90
16829;DHT22;8531;48.078;11.968;2024-01-07T12:12:47;1.60;99.90
16829;DHT22;8531;48.078;11.968;2024-01-07T12:15:13;1.70;99.90
16829;DHT22;8531;48.078;11.968;2024-01-07T12:17:39;1.70;99.90
16829;DHT22;8531;48.078;11.968;2024-01-07T12:20:06;1.80;99.90
16829;DHT22;8531;48.078;11.968;2024-01-07T12:22:37;1.80;99.90
16829;DHT22;8531;48.078;11.968;2024-01-07T12:25:03;1.60;99.90
16829;DHT22;8531;48.078;11.968;2024-01-07T12:27:29;1.60;99.90
16829;DHT22;8531;48.078;11.968;2024-01-07T12:29:58;1.60;99.90
16829;DHT22;8531;48.078;11.968;2024-01-07T12:32:30;1.60;99.90
16829;DHT22;8531;48.078;11.968;2024-01-07T12:34:59;1.60;99.90
16829;DHT22;8531;48.078;11.968;2024-01-07T12:37:28;1.60;99.90
16829;DHT22;8531;48.078;11.968;2024-01-07T12:39:54;1.60;99.90
16829;DHT22;8531;48.078;11.968;2024-01-07T12:42:20;1.60;99.90
16829;DHT22;8531;48.078;11.968;2024-01-07T12:44:49;1.70;99.90
16829;DHT22;8531;48.078;11.968;2024-01-07T12:47:15;1.80;99.90
16829;DHT22;8531;48.078;11.968;2024-01-07T12:49:41;1.70;99.90
16829;DHT22;8531;48.078;11.968;2024-01-07T12:52:07;1.70;99.90
16829;DHT22;8531;48.078;11.968;2024-01-07T12:54:32;1.70;99.90
16829;DHT22;8531;48.078;11.968;2024-01-07T12:56:59;1.60;99.90
16829;DHT22;8531;48.078;11.968;2024-01-07T12:59:26;1.60;99.90
16829;DHT22;8531;48.078;11.968;2024-01-07T13:01:51;1.50;99.90
16829;DHT22;8531;48.078;11.968;2024-01-07T13:04:18;1.40;99.90
16829;DHT22;8531;48.078;11.968;2024-01-07T13:06:45;1.50;99.90
16829;DHT22;8531;48.078;11.968;2024-01-07T13:09:11;1.40;99.90
16829;DHT22;8531;48.078;11.968;2024-01-07T13:11:36;1.20;99.90
16829;DHT22;8531;48.078;11.968;2024-01-07T13:14:02;1.20;99.90
16829;DHT22;8531;48.078;11.968;2024-01-07T13:16:28;1.30;99.90
16829;DHT22;8531;48.078;11.968;2024-01-07T13:18:55;1.20;99.90
16829;DHT22;8531;48.078;11.968;2024-01-07T13:21:21;1.10;99.90
16829;DHT22;8531;48.078;11.968;2024-01-07T13:23:47;1.10;99.90
16829;DHT22;8531;48.078;11.968;2024-01-07T13:26:14;1.10;99.90
16829;DHT22;8531;48.078;11.968;2024-01-07T13:28:40;1.10;99.90
16829;DHT22;8531;48.078;11.968;2024-01-07T13:31:07;0.90;99.90
16829;DHT22;8531;48.078;11.968;2024-01-07T13:33:33;1.00;99.90
16829;DHT22;8531;48.078;11.968;2024-01-07T13:35:58;1.10;99.90
16829;DHT22;8531;48.078;11.968;2024-01-07T13:38:24;1.20;99.90
16829;DHT22;8531;48.078;11.968;2024-01-07T13:40:50;1.20;99.90
16829;DHT22;8531;48.078;11.968;2024-01-07T13:43:16;1.30;99.90
16829;DHT22;8531;48.078;11.968;2024-01-07T13:45:42;1.40;99.90
16829;DHT22;8531;48.078;11.968;2024-01-07T13:48:07;1.30;99.90
16829;DHT22;8531;48.078;11.968;2024-01-07T13:50:33;1.20;99.90
16829;DHT22;8531;48.078;11.968;2024-01-07T13:52:59;1.20;99.90
16829;DHT22;8531;48.078;11.968;2024-01-07T13:55:25;1.20;99.90
16829;DHT22;8531;48.078;11.968;2024-01-07T13:57:50;1.20;99.90
16829;DHT22;8531;48.078;11.968;2024-01-07T14:00:16;1.20;99.90
16829;DHT22;8531;48.078;11.968;2024-01-07T14:02:44;1.10;99.90
16829;DHT22;8531;48.078;11.968;2024-01-07T14:05:12;1.10;99.90
16829;DHT22;8531;48.078;11.968;2024-01-07T14:07:38;1.10;99.90
16829;DHT22;8531;48.078;11.968;2024-01-07T14:10:05;1.20;99.90
16829;DHT22;8531;48.078;11.968;2024-01-07T14:12:31;1.20;99.90
16829;DHT22;8531;48.078;11.968;2024-01-07T14:14:57;1.10;99.90
16829;DHT22;8531;48.078;11.968;2024-01-07T14:17:24;1.10;99.90
16829;DHT22;8531;48.078;11.968;2024-01-07T14:19:50;0.90;99.90
16829;DHT22;8531;48.078;11.968;2024-01-07T14:22:17;0.90;99.90
16829;DHT22;8531;48.078;11.968;2024-01-07T14:24:43;0.90;99.90
16829;DHT22;8531;48.078;11.968;2024-01-07T14:27:09;0.70;99.90
16829;DHT22;8531;48.078;11.968;2024-01-07T14:29:37;0.80;99.90
16829;DHT22;8531;48.078;11.968;2024-01-07T14:32:04;1.00;99.90
16829;DHT22;8531;48.078;11.968;2024-01-07T14:34:30;1.00;99.90
16829;DHT22;8531;48.078;11.968;2024-01-07T14:36:56;1.10;99.90
16829;DHT22;8531;48.078;11.968;2024-01-07T14:39:21;1.10;99.90
16829;DHT22;8531;48.078;11.968;2024-01-07T14:41:47;1.00;99.90
16829;DHT22;8531;48.078;11.968;2024-01-07T14:44:13;1.00;99.90
16829;DHT22;8531;48.078;11.968;2024-01-07T14:46:39;1.00;99.90
16829;DHT22;8531;48.078;11.968;2024-01-07T14:49:04;1.00;99.90
16829;DHT22;8531;48.078;11.968;2024-01-07T14:51:30;1.00;99.90
16829;DHT22;8531;48.078;11.968;2024-01-07T14:53:57;1.00;99.90
16829;DHT22;8531;48.078;11.968;2024-01-07T14:56:22;0.90;99.90
16829;DHT22;8531;48.078;11.968;2024-01-07T14:58:48;0.90;99.90
16829;DHT22;8531;48.078;11.968;2024-01-07T15:01:14;0.80;99.90
16829;DHT22;8531;48.078;11.968;2024-01-07T15:03:40;0.80;99.90
16829;DHT22;8531;48.078;11.968;2024-01-07T15:06:06;0.80;99.90
16829;DHT22;8531;48.078;11.968;2024-01-07T15:08:34;0.70;99.90
16829;DHT22;8531;48.078;11.968;2024-01-07T15:11:00;0.80;99.90
16829;DHT22;8531;48.078;11.968;2024-01-07T15:13:25;0.70;99.90
16829;DHT22;8531;48.078;11.968;2024-01-07T15:15:52;0.70;99.90
16829;DHT22;8531;48.078;11.968;2024-01-07T15:18:18;0.70;99.90
16829;DHT22;8531;48.078;11.968;2024-01-07T15:20:44;0.70;99.90
16829;DHT22;8531;48.078;11.968;2024-01-07T15:23:09;0.80;99.90
16829;DHT22;8531;48.078;11.968;2024-01-07T15:25:35;0.80;99.90
16829;DHT22;8531;48.078;11.968;2024-01-07T15:28:01;0.60;99.90
16829;DHT22;8531;48.078;11.968;2024-01-07T15:30:26;0.70;99.90
16829;DHT22;8531;48.078;11.968;2024-01-07T15:32:53;0.60;99.90
16829;DHT22;8531;48.078;11.968;2024-01-07T15:35:18;0.40;99.90
16829;DHT22;8531;48.078;11.968;2024-01-07T15:37:44;0.40;99.90
16829;DHT22;8531;48.078;11.968;2024-01-07T15:40:10;0.40;99.90
16829;DHT22;8531;48.078;11.968;2024-01-07T15:42:37;0.40;99.90
16829;DHT22;8531;48.078;11.968;2024-01-07T15:45:02;0.40;99.90
16829;DHT22;8531;48.078;11.968;2024-01-07T15:47:28;0.40;99.90